McFarland, CA (93250)

11:06 PM PDT on August 03, 2015 (GMT -0700)
APRSWXNET | | Change Station
CLOSE
Current Station
Personal Weather Station
Location: McFarland, CA
Elevation: 351 ft
Nearby Weather Stations

Elev 351 ft 35.68 °N, 119.23 °W | Updated 30 minutes ago

Clear
Clear
79 °F
Feels Like 79 °F
N
5
Wind Variable Wind from WNW
Gusts 8.0 mph

Today
High -- | Low -- °F
--% Chance of Precip.
Yesterday
High -- | Low -- °F
Precip. -- in
6:06 AM 7:59 PM
Waning Gibbous, 80% visible
Pressure 29.84 in
Visibility 10.0 miles
Clouds Clear
Heat Index 79 °F
Dew Point 52 °F
Humidity 39%
Rainfall in
Snow Depth Not available.
UV 0 out of 12
Pollen 5.60 out of 12
Air Quality Not available.
Flu Activity Not available.
METAR KBFL 040554Z 33006KT 10SM CLR 27/08 A2986 RMK AO2 SLP104 T02670083 10361 20267 51019

More Conditions Fewer Conditions

Pressure 29.84 in
Visibility 10.0 miles
Clouds Clear
Heat Index 79 °F
Dew Point 52 °F
Humidity 39%
Rainfall in
Snow Depth Not available.
UV 0 out of 12
Pollen 5.60 out of 12
Air Quality Not available.
Flu Activity Not available.
METAR KBFL 040554Z 33006KT 10SM CLR 27/08 A2986 RMK AO2 SLP104 T02670083 10361 20267 51019

More Conditions Fewer Conditions

10-Day Weather Forecast

×

Almanac

Astronomy

Aug. 03, 2015 Rise Set
Actual Time
Civil Twilight
Nautical Twilight
Astronomical Twilight
Moon
Length of Visible Light
Length of Day
Tomorrow will be .
, % of the Moon is Illuminated

Today's Extremes

State Highs State Lows

Community

WunderPhotos

Upload Photos

1,843,870 photos uploaded!

WunderBlogs® & News

Nearby

Air Quality

  Air Quality AQ Index Pollutant
Not available.

Snow Depth

Station Depth Elevation

Earthquake Activity

City Distance Mag. Time & Date
Minimum magnitude displayed is 2.5.

Coastal Water Temperatures

Place Temperature

Stations

Nearby Weather Stations

Station Location Temp. Windchill Dew Point Humidity Wind Precip. Elev Updated Type